createdAt,value
2018-07-20T00:01:29.695Z,101048.45
2018-07-20T00:03:57.949Z,101039.93
2018-07-20T00:06:26.168Z,101040.39
2018-07-20T00:08:54.420Z,101037.80
2018-07-20T00:11:22.646Z,101034.46
2018-07-20T00:13:51.257Z,101034.46
2018-07-20T00:16:19.954Z,101028.62
2018-07-20T00:18:48.153Z,101029.85
2018-07-20T00:21:16.364Z,101031.26
2018-07-20T00:23:44.590Z,101033.53
2018-07-20T00:26:12.824Z,101023.54
2018-07-20T00:28:41.021Z,101026.80
2018-07-20T00:31:09.225Z,101030.91
2018-07-20T00:33:37.461Z,101031.28
2018-07-20T00:36:05.701Z,101027.25
2018-07-20T00:38:33.929Z,101028.66
2018-07-20T00:41:02.141Z,101031.86
2018-07-20T00:43:30.385Z,101019.30
2018-07-20T00:45:58.588Z,101024.69
2018-07-20T00:48:26.800Z,101022.08
2018-07-20T00:50:55.021Z,101019.08
2018-07-20T00:53:23.225Z,101019.58
2018-07-20T00:55:51.448Z,101016.38
2018-07-20T00:58:19.695Z,101014.02
2018-07-20T01:00:47.941Z,101019.72
2018-07-20T01:03:16.165Z,101018.75
2018-07-20T01:05:44.369Z,101018.81
2018-07-20T01:08:12.604Z,101012.28
2018-07-20T01:10:40.828Z,101018.68
2018-07-20T01:13:09.056Z,101016.59
2018-07-20T01:15:37.300Z,101020.04
2018-07-20T01:18:05.533Z,101011.06
2018-07-20T01:20:33.749Z,101011.15
2018-07-20T01:23:01.948Z,101013.56
2018-07-20T01:25:30.172Z,101014.64
2018-07-20T01:27:58.397Z,101011.91
2018-07-20T01:30:26.674Z,101008.06
2018-07-20T01:32:54.918Z,101009.78
2018-07-20T01:35:23.133Z,101011.69
2018-07-20T01:37:51.410Z,101012.56
2018-07-20T01:40:19.675Z,101007.89
2018-07-20T01:42:47.916Z,101006.23
2018-07-20T01:45:16.137Z,101005.20
2018-07-20T01:47:44.356Z,101000.16
2018-07-20T01:50:12.597Z,101002.70
2018-07-20T01:52:40.949Z,101010.25
2018-07-20T01:55:09.172Z,101006.92
2018-07-20T01:57:37.396Z,101006.59
2018-07-20T02:00:05.681Z,101008.59
2018-07-20T02:02:33.920Z,101008.91
2018-07-20T02:05:02.152Z,101008.27
2018-07-20T02:07:30.366Z,101008.59
2018-07-20T02:09:58.568Z,101000.53
2018-07-20T02:12:26.776Z,101003.54
2018-07-20T02:14:55.065Z,101005.20
2018-07-20T02:17:23.268Z,100998.48
2018-07-20T02:19:51.516Z,101004.05
2018-07-20T02:22:19.733Z,101006.73
2018-07-20T02:24:47.936Z,101008.59
2018-07-20T02:27:16.169Z,101006.97
2018-07-20T02:29:44.422Z,101003.31
2018-07-20T02:32:12.671Z,101002.67
2018-07-20T02:34:40.885Z,100997.30
2018-07-20T02:37:09.137Z,100995.15
2018-07-20T02:39:37.353Z,100996.35
2018-07-20T02:42:05.585Z,100992.05
2018-07-20T02:44:33.810Z,100996.08
2018-07-20T02:47:02.073Z,100991.41
2018-07-20T02:49:30.305Z,100988.14
2018-07-20T02:51:58.533Z,100986.85
2018-07-20T02:54:26.753Z,100992.45
2018-07-20T02:56:54.965Z,100988.17
2018-07-20T02:59:23.194Z,100988.03
2018-07-20T03:01:51.421Z,100992.06
2018-07-20T03:04:19.618Z,100989.56
2018-07-20T03:06:47.825Z,100992.94
2018-07-20T03:09:16.046Z,100994.79
2018-07-20T03:11:44.553Z,100991.27
2018-07-20T03:14:12.777Z,100992.25
2018-07-20T03:16:41.005Z,100996.09
2018-07-20T03:19:09.516Z,100990.72
2018-07-20T03:21:37.746Z,100991.05
2018-07-20T03:24:06.041Z,100995.07
2018-07-20T03:26:34.277Z,100990.39
2018-07-20T03:29:02.555Z,100993.77
2018-07-20T03:31:30.771Z,100994.14
2018-07-20T03:33:58.997Z,100993.48
2018-07-20T03:36:27.212Z,100998.16
2018-07-20T03:38:55.442Z,100995.48
2018-07-20T03:41:23.664Z,100992.47
2018-07-20T03:43:51.897Z,100988.30
2018-07-20T03:46:20.176Z,100995.52
2018-07-20T03:48:48.408Z,100985.80
2018-07-20T03:51:16.629Z,100986.82
2018-07-20T03:53:44.857Z,100981.52
2018-07-20T03:56:13.088Z,100976.16
2018-07-20T03:58:41.320Z,100970.46
2018-07-20T04:01:09.532Z,100979.16
2018-07-20T04:03:37.732Z,100971.95
2018-07-20T04:06:05.979Z,100974.30
2018-07-20T04:08:34.201Z,100972.13
2018-07-20T04:11:02.501Z,100967.78
2018-07-20T04:13:30.748Z,100964.45
2018-07-20T04:15:58.985Z,100961.44
2018-07-20T04:18:27.228Z,100962.78
2018-07-20T04:20:55.488Z,100961.22
2018-07-20T04:23:23.712Z,100965.15
2018-07-20T04:25:51.936Z,100955.07
2018-07-20T04:28:20.169Z,100962.06
2018-07-20T04:30:48.388Z,100967.81
2018-07-20T04:33:16.604Z,100963.65
2018-07-20T04:35:44.836Z,100960.02
2018-07-20T04:38:13.052Z,100952.84
2018-07-20T04:40:41.288Z,100946.67
2018-07-20T04:43:09.568Z,100948.88
2018-07-20T04:45:37.809Z,100954.42
2018-07-20T04:48:06.200Z,100949.63
2018-07-20T04:50:34.526Z,100956.19
2018-07-20T04:53:02.741Z,100953.33
2018-07-20T04:55:30.957Z,100953.47
2018-07-20T04:57:59.200Z,100952.25
2018-07-20T05:00:27.417Z,100956.09
2018-07-20T05:02:55.625Z,100954.57
2018-07-20T05:05:23.828Z,100953.73
2018-07-20T05:07:52.053Z,100956.75
2018-07-20T05:10:20.268Z,100954.75
2018-07-20T05:12:48.469Z,100954.81
2018-07-20T05:15:16.686Z,100955.50
2018-07-20T05:17:44.909Z,100952.67
2018-07-20T05:20:13.144Z,100960.71
2018-07-20T05:22:41.348Z,100967.92
2018-07-20T05:25:10.430Z,100958.03
2018-07-20T05:27:38.634Z,100959.19
2018-07-20T05:30:07.773Z,100959.37
2018-07-20T05:32:35.984Z,100957.20
2018-07-20T05:35:04.205Z,100965.23
2018-07-20T05:37:32.443Z,100955.86
2018-07-20T05:40:00.660Z,100958.03
2018-07-20T05:42:28.896Z,100956.69
2018-07-20T05:44:57.115Z,100949.98
2018-07-20T05:47:25.382Z,100955.67
2018-07-20T05:49:53.592Z,100957.34
2018-07-20T05:52:21.836Z,100953.66
2018-07-20T05:54:50.150Z,100954.31
2018-07-20T05:57:18.381Z,100955.97
2018-07-20T05:59:46.829Z,100958.77
2018-07-20T06:02:15.345Z,100953.38
2018-07-20T06:04:43.613Z,100954.36
2018-07-20T06:07:11.965Z,100955.70
2018-07-20T06:09:40.180Z,100952.01
2018-07-20T06:12:08.577Z,100957.34
2018-07-20T06:14:36.785Z,100954.48
2018-07-20T06:17:05.034Z,100953.43
2018-07-20T06:19:33.340Z,100951.91
2018-07-20T06:22:01.569Z,100948.97
2018-07-20T06:24:29.824Z,100949.80
2018-07-20T06:26:58.077Z,100946.61
2018-07-20T06:29:26.313Z,100956.08
2018-07-20T06:31:54.531Z,100953.91
2018-07-20T06:34:22.792Z,100955.57
2018-07-20T06:36:51.005Z,100954.20
2018-07-20T06:39:19.252Z,100958.51
2018-07-20T06:41:47.469Z,100955.22
2018-07-20T06:44:15.756Z,100955.33
2018-07-20T06:46:43.985Z,100950.21
2018-07-20T06:49:12.192Z,100947.86
2018-07-20T06:51:40.450Z,100955.72
2018-07-20T06:54:08.688Z,100951.19
2018-07-20T06:56:36.945Z,100951.84
2018-07-20T06:59:05.196Z,100959.37
2018-07-20T07:01:33.666Z,100959.12
2018-07-20T07:04:01.913Z,100953.34
2018-07-20T07:06:30.144Z,100950.66
2018-07-20T07:08:58.616Z,100944.92
2018-07-20T07:11:26.852Z,100951.23
2018-07-20T07:13:55.105Z,100949.84
2018-07-20T07:16:23.346Z,100947.11
2018-07-20T07:18:51.572Z,100948.19
2018-07-20T07:21:19.818Z,100947.58
2018-07-20T07:23:48.053Z,100951.28
2018-07-20T07:26:16.261Z,100950.05
2018-07-20T07:28:44.502Z,100948.09
2018-07-20T07:31:12.706Z,100950.59
2018-07-20T07:33:40.932Z,100948.19
2018-07-20T07:36:09.172Z,100943.80
2018-07-20T07:38:37.399Z,100933.80
2018-07-20T07:41:05.620Z,100940.05
2018-07-20T07:43:33.844Z,100934.68
2018-07-20T07:46:02.118Z,100934.17
2018-07-20T07:48:30.345Z,100931.56
2018-07-20T07:50:58.669Z,100929.44
2018-07-20T07:53:26.944Z,100942.95
2018-07-20T07:55:55.176Z,100938.09
2018-07-20T07:58:23.416Z,100945.83
2018-07-20T08:00:51.624Z,100941.80
2018-07-20T08:03:19.940Z,100941.10
2018-07-20T08:05:48.153Z,100930.48
2018-07-20T08:08:16.376Z,100937.02
2018-07-20T08:10:44.637Z,100928.45
2018-07-20T08:13:12.856Z,100930.05
2018-07-20T08:15:41.120Z,100929.43
2018-07-20T08:18:09.318Z,100927.16
2018-07-20T08:20:37.536Z,100924.61
2018-07-20T08:23:05.809Z,100916.55
2018-07-20T08:25:34.069Z,100912.78
2018-07-20T08:28:02.309Z,100914.70
2018-07-20T08:30:30.725Z,100919.66
2018-07-20T08:32:58.957Z,100920.24
2018-07-20T08:35:27.244Z,100918.64
2018-07-20T08:37:55.700Z,100909.77
2018-07-20T08:40:23.929Z,100910.55
2018-07-20T08:42:52.504Z,100908.17
2018-07-20T08:45:20.760Z,100905.80
2018-07-20T08:47:48.976Z,100905.41
2018-07-20T08:50:17.227Z,100903.66
2018-07-20T08:52:45.552Z,100904.16
2018-07-20T08:55:13.864Z,100905.00
2018-07-20T08:57:42.106Z,100895.58
2018-07-20T09:00:10.330Z,100895.52
2018-07-20T09:02:38.592Z,100894.10
2018-07-20T09:05:06.828Z,100891.02
2018-07-20T09:07:35.144Z,100892.30
2018-07-20T09:10:03.398Z,100894.72
2018-07-20T09:12:31.685Z,100894.45
2018-07-20T09:15:00.018Z,100891.14
2018-07-20T09:17:28.344Z,100888.06
2018-07-20T09:19:56.565Z,100891.83
2018-07-20T09:22:24.852Z,100891.52
2018-07-20T09:24:53.081Z,100895.16
2018-07-20T09:27:21.346Z,100888.55
2018-07-20T09:29:49.569Z,100893.55
2018-07-20T09:32:17.805Z,100891.09
2018-07-20T09:34:46.029Z,100891.61
2018-07-20T09:37:14.241Z,100885.52
2018-07-20T09:39:42.478Z,100883.77
2018-07-20T09:42:10.925Z,100875.89
2018-07-20T09:44:39.220Z,100879.45
2018-07-20T09:47:07.444Z,100877.51
2018-07-20T09:49:35.813Z,100876.19
2018-07-20T09:52:04.037Z,100868.97
2018-07-20T09:54:32.273Z,100871.14
2018-07-20T09:57:00.493Z,100864.00
2018-07-20T09:59:28.744Z,100865.69
2018-07-20T10:01:57.065Z,100863.81
2018-07-20T10:04:25.292Z,100865.78
2018-07-20T10:06:53.536Z,100861.86
2018-07-20T10:09:21.788Z,100865.48
2018-07-20T10:11:50.049Z,100859.90
2018-07-20T10:14:18.266Z,100854.17
2018-07-20T10:16:46.480Z,100859.58
2018-07-20T10:19:14.783Z,100853.55
2018-07-20T10:21:42.993Z,100855.42
2018-07-20T10:24:11.252Z,100845.71
2018-07-20T10:26:39.564Z,100854.81
2018-07-20T10:29:07.805Z,100854.61
2018-07-20T10:31:36.035Z,100853.44
2018-07-20T10:34:04.253Z,100848.56
2018-07-20T10:36:32.502Z,100848.05
2018-07-20T10:39:00.741Z,100844.80
2018-07-20T10:41:28.952Z,100852.84
2018-07-20T10:43:57.185Z,100849.52
2018-07-20T10:46:25.422Z,100849.06
2018-07-20T10:48:53.657Z,100846.92
2018-07-20T10:51:21.888Z,100850.72
2018-07-20T10:53:50.105Z,100840.90
2018-07-20T10:56:18.329Z,100842.65
2018-07-20T10:58:46.541Z,100838.98
2018-07-20T11:01:14.812Z,100837.69
2018-07-20T11:03:43.012Z,100827.83
2018-07-20T11:06:11.261Z,100830.48
2018-07-20T11:08:39.469Z,100827.14
2018-07-20T11:11:08.236Z,100821.17
2018-07-20T11:13:36.570Z,100818.83
2018-07-20T11:16:04.805Z,100819.39
2018-07-20T11:18:33.033Z,100820.27
2018-07-20T11:21:01.345Z,100807.08
2018-07-20T11:23:29.556Z,100808.52
2018-07-20T11:25:57.789Z,100814.12
2018-07-20T11:28:26.001Z,100803.05
2018-07-20T11:30:54.256Z,100806.08
2018-07-20T11:33:22.568Z,100800.22
2018-07-20T11:35:50.810Z,100802.09
2018-07-20T11:38:19.020Z,100802.31
2018-07-20T11:40:47.285Z,100800.05
2018-07-20T11:43:15.518Z,100793.44
2018-07-20T11:45:43.748Z,100793.88
2018-07-20T11:48:11.957Z,100792.70
2018-07-20T11:50:40.168Z,100788.77
2018-07-20T11:53:08.404Z,100791.02
2018-07-20T11:55:36.627Z,100786.78
2018-07-20T11:58:04.880Z,100790.44
2018-07-20T12:00:33.112Z,100788.58
2018-07-20T12:03:01.354Z,100789.22
2018-07-20T12:05:29.568Z,100773.63
2018-07-20T12:07:57.800Z,100780.30
2018-07-20T12:10:26.017Z,100773.69
2018-07-20T12:12:54.244Z,100766.70
2018-07-20T12:15:22.468Z,100766.70
2018-07-20T12:17:50.700Z,100759.91
2018-07-20T12:20:18.909Z,100753.89
2018-07-20T12:22:47.170Z,100749.52
2018-07-20T12:25:15.391Z,100752.43
2018-07-20T12:27:43.764Z,100752.00
2018-07-20T12:30:12.001Z,100749.68
2018-07-20T12:32:40.203Z,100747.42
2018-07-20T12:35:08.453Z,100744.80
2018-07-20T12:37:36.664Z,100741.02
2018-07-20T12:40:04.987Z,100734.86
2018-07-20T12:42:33.304Z,100731.46
2018-07-20T12:45:01.458Z,100731.92
2018-07-20T12:47:29.685Z,100727.80
2018-07-20T12:49:57.901Z,100736.33
2018-07-20T12:52:26.121Z,100726.44
2018-07-20T12:54:54.365Z,100732.95
2018-07-20T12:57:22.597Z,100733.40
2018-07-20T12:59:50.829Z,100730.38
2018-07-20T13:02:19.077Z,100730.39
2018-07-20T13:04:47.307Z,100720.42
2018-07-20T13:07:15.551Z,100719.39
2018-07-20T13:09:43.797Z,100720.80
2018-07-20T13:12:12.030Z,100721.20
2018-07-20T13:14:40.244Z,100720.05
2018-07-20T13:17:08.494Z,100719.69
2018-07-20T13:19:36.697Z,100720.27
2018-07-20T13:22:04.933Z,100722.23
2018-07-20T13:24:33.161Z,100713.28
2018-07-20T13:27:01.641Z,100709.90
2018-07-20T13:29:29.852Z,100711.45
2018-07-20T13:31:58.081Z,100707.65
2018-07-20T13:34:26.300Z,100703.59
2018-07-20T13:36:54.537Z,100706.79
2018-07-20T13:39:22.804Z,100702.41
2018-07-20T13:41:51.057Z,100696.89
2018-07-20T13:44:19.276Z,100692.66
2018-07-20T13:46:47.521Z,100687.05
2018-07-20T13:49:15.749Z,100685.02
2018-07-20T13:51:43.972Z,100686.66
2018-07-20T13:54:12.217Z,100681.78
2018-07-20T13:56:40.436Z,100680.87
2018-07-20T13:59:08.672Z,100674.36
2018-07-20T14:01:36.908Z,100675.27
2018-07-20T14:04:05.183Z,100670.89
2018-07-20T14:06:33.388Z,100673.36
2018-07-20T14:09:01.614Z,100664.14
2018-07-20T14:11:29.850Z,100664.25
2018-07-20T14:13:58.055Z,100661.66
2018-07-20T14:16:26.286Z,100659.20
2018-07-20T14:18:54.528Z,100653.70
2018-07-20T14:21:22.738Z,100644.68
2018-07-20T14:23:50.961Z,100644.36
2018-07-20T14:26:19.227Z,100644.88
2018-07-20T14:28:47.408Z,100649.14
2018-07-20T14:31:15.636Z,100638.66
2018-07-20T14:33:43.862Z,100634.53
2018-07-20T14:36:12.124Z,100629.62
2018-07-20T14:38:40.350Z,100632.37
2018-07-20T14:41:08.577Z,100623.37
2018-07-20T14:43:36.797Z,100632.52
2018-07-20T14:46:05.149Z,100636.30
2018-07-20T14:48:33.358Z,100630.84
2018-07-20T14:51:01.579Z,100625.91
2018-07-20T14:53:29.801Z,100623.16
2018-07-20T14:55:58.046Z,100618.48
2018-07-20T14:58:26.293Z,100608.94
2018-07-20T15:00:54.532Z,100602.70
2018-07-20T15:03:22.741Z,100615.24
2018-07-20T15:05:50.944Z,100606.50
2018-07-20T15:08:19.172Z,100605.16
2018-07-20T15:10:47.384Z,100600.33
2018-07-20T15:13:15.681Z,100597.16
2018-07-20T15:15:43.900Z,100600.20
2018-07-20T15:18:12.117Z,100597.49
2018-07-20T15:20:40.346Z,100597.80
2018-07-20T15:23:08.612Z,100601.42
2018-07-20T15:25:37.052Z,100595.77
2018-07-20T15:28:05.373Z,100594.13
2018-07-20T15:30:33.632Z,100595.48
2018-07-20T15:33:01.856Z,100595.39
2018-07-20T15:35:30.068Z,100590.94
2018-07-20T15:37:58.278Z,100581.58
2018-07-20T15:40:26.537Z,100584.52
2018-07-20T15:42:54.801Z,100584.75
2018-07-20T15:45:23.049Z,100574.93
2018-07-20T15:47:51.301Z,100579.86
2018-07-20T15:50:19.516Z,100576.22
2018-07-20T15:53:35.719Z,100582.02
2018-07-20T15:55:16.003Z,100580.17
2018-07-20T15:57:44.248Z,100581.62
2018-07-20T16:00:12.501Z,100574.33
2018-07-20T16:02:40.749Z,100574.91
2018-07-20T16:05:08.985Z,100568.48
2018-07-20T16:07:37.237Z,100568.59
2018-07-20T16:10:05.496Z,100566.81
2018-07-20T16:12:33.729Z,100569.16
2018-07-20T16:15:01.967Z,100567.39
2018-07-20T16:17:30.186Z,100572.50
2018-07-20T16:19:58.425Z,100568.25
2018-07-20T16:22:26.709Z,100568.91
2018-07-20T16:24:54.940Z,100565.78
2018-07-20T16:27:23.157Z,100558.00
2018-07-20T16:29:51.380Z,100562.44
2018-07-20T16:32:19.649Z,100557.36
2018-07-20T16:34:47.893Z,100557.11
2018-07-20T16:37:16.136Z,100551.85
2018-07-20T16:39:44.348Z,100550.47
2018-07-20T16:42:12.592Z,100550.22
2018-07-20T16:44:40.832Z,100544.97
2018-07-20T16:47:09.090Z,100548.77
2018-07-20T16:49:37.315Z,100546.56
2018-07-20T16:52:05.540Z,100545.05
2018-07-20T16:54:33.753Z,100542.02
2018-07-20T16:57:01.964Z,100542.39
2018-07-20T16:59:30.200Z,100543.83
2018-07-20T17:01:58.412Z,100537.96
2018-07-20T17:04:26.649Z,100537.66
2018-07-20T17:06:54.877Z,100530.23
2018-07-20T17:09:23.100Z,100529.72
2018-07-20T17:11:51.319Z,100530.56
2018-07-20T17:14:19.545Z,100533.28
2018-07-20T17:16:47.756Z,100535.73
2018-07-20T17:19:15.995Z,100533.38
2018-07-20T17:21:44.244Z,100531.58
2018-07-20T17:24:12.477Z,100530.30
2018-07-20T17:26:40.704Z,100534.16
2018-07-20T17:29:08.941Z,100529.98
2018-07-20T17:31:37.157Z,100531.48
2018-07-20T17:34:05.429Z,100529.48
2018-07-20T17:36:33.660Z,100532.14
2018-07-20T17:39:02.050Z,100532.56
2018-07-20T17:41:30.273Z,100533.88
2018-07-20T17:43:58.469Z,100540.02
2018-07-20T17:46:26.734Z,100533.98
2018-07-20T17:48:54.946Z,100533.56
2018-07-20T17:51:23.164Z,100538.11
2018-07-20T17:53:51.408Z,100532.61
2018-07-20T17:56:19.664Z,100542.58
2018-07-20T17:58:47.845Z,100545.48
2018-07-20T18:01:16.253Z,100546.72
2018-07-20T18:03:44.518Z,100551.25
2018-07-20T18:06:12.845Z,100545.47
2018-07-20T18:08:41.048Z,100551.07
2018-07-20T18:11:09.277Z,100556.20
2018-07-20T18:13:37.509Z,100561.54
2018-07-20T18:16:05.860Z,100564.43
2018-07-20T18:18:34.070Z,100570.56
2018-07-20T18:21:02.305Z,100578.08
2018-07-20T18:23:30.549Z,100578.78
2018-07-20T18:25:58.765Z,100587.73
2018-07-20T18:28:26.970Z,100589.33
2018-07-20T18:30:55.193Z,100588.11
2018-07-20T18:33:23.420Z,100596.19
2018-07-20T18:35:51.660Z,100594.73
2018-07-20T18:38:19.884Z,100594.61
2018-07-20T18:40:48.137Z,100598.55
2018-07-20T18:43:16.389Z,100595.51
2018-07-20T18:45:44.625Z,100590.78
2018-07-20T18:48:12.827Z,100588.11
2018-07-20T18:50:41.060Z,100591.42
2018-07-20T18:53:09.263Z,100579.30
2018-07-20T18:55:37.481Z,100578.66
2018-07-20T18:58:05.726Z,100574.25
2018-07-20T19:00:33.945Z,100578.59
2018-07-20T19:03:02.169Z,100577.44
2018-07-20T19:05:30.385Z,100577.52
2018-07-20T19:07:58.622Z,100571.63
2018-07-20T19:10:26.829Z,100574.91
2018-07-20T19:12:55.041Z,100573.73
2018-07-20T19:15:23.341Z,100561.78
2018-07-20T19:17:51.604Z,100568.28
2018-07-20T19:20:19.842Z,100570.30
2018-07-20T19:22:48.073Z,100565.80
2018-07-20T19:25:16.333Z,100566.34
2018-07-20T19:27:44.637Z,100575.28
2018-07-20T19:30:12.909Z,100573.55
2018-07-20T19:32:41.171Z,100575.34
2018-07-20T19:35:09.343Z,100573.92
2018-07-20T19:37:37.565Z,100582.81
2018-07-20T19:40:05.787Z,100586.26
2018-07-20T19:42:34.018Z,100597.30
2018-07-20T19:45:02.245Z,100590.45
2018-07-20T19:47:30.546Z,100593.98
2018-07-20T19:49:58.761Z,100600.44
2018-07-20T19:52:27.002Z,100600.74
2018-07-20T19:54:55.253Z,100601.95
2018-07-20T19:57:23.488Z,100595.24
2018-07-20T19:59:51.709Z,100597.80
2018-07-20T20:02:19.921Z,100602.16
2018-07-20T20:04:48.165Z,100600.89
2018-07-20T20:07:16.377Z,100604.95
2018-07-20T20:09:44.825Z,100598.41
2018-07-20T20:12:13.525Z,100596.01
2018-07-20T20:14:41.780Z,100601.19
2018-07-20T20:17:10.016Z,100602.02
2018-07-20T20:19:38.252Z,100607.13
2018-07-20T20:22:06.773Z,100593.75
2018-07-20T20:24:35.000Z,100598.41
2018-07-20T20:27:03.320Z,100596.75
2018-07-20T20:29:31.581Z,100601.55
2018-07-20T20:31:59.810Z,100594.72
2018-07-20T20:34:28.025Z,100593.63
2018-07-20T20:36:56.254Z,100587.91
2018-07-20T20:39:24.465Z,100583.92
2018-07-20T20:41:52.670Z,100596.47
2018-07-20T20:44:20.903Z,100596.30
2018-07-20T20:46:49.166Z,100594.52
2018-07-20T20:49:17.416Z,100596.53
2018-07-20T20:51:45.697Z,100597.91
2018-07-20T20:54:13.952Z,100589.67
2018-07-20T20:56:42.164Z,100594.99
2018-07-20T20:59:10.450Z,100594.91
2018-07-20T21:01:38.652Z,100583.63
2018-07-20T21:04:06.872Z,100589.64
2018-07-20T21:06:35.104Z,100589.64
2018-07-20T21:09:03.456Z,100589.50
2018-07-20T21:11:31.677Z,100585.45
2018-07-20T21:13:59.918Z,100586.14
2018-07-20T21:16:28.132Z,100581.31
2018-07-20T21:18:56.376Z,100589.28
2018-07-20T21:21:24.685Z,100582.00
2018-07-20T21:23:52.907Z,100583.44
2018-07-20T21:26:21.117Z,100584.56
2018-07-20T21:28:49.344Z,100582.16
2018-07-20T21:31:17.589Z,100588.09
2018-07-20T21:33:45.815Z,100578.63
2018-07-20T21:36:14.049Z,100590.27
2018-07-20T21:38:42.284Z,100588.09
2018-07-20T21:41:10.532Z,100585.00
2018-07-20T21:43:38.805Z,100587.92
2018-07-20T21:46:07.138Z,100584.79
2018-07-20T21:48:35.462Z,100591.90
2018-07-20T21:51:03.628Z,100597.25
2018-07-20T21:53:31.869Z,100593.94
2018-07-20T21:56:00.128Z,100600.61
2018-07-20T21:58:28.344Z,100607.37
2018-07-20T22:00:56.582Z,100601.66
2018-07-20T22:03:24.869Z,100601.05
2018-07-20T22:05:53.100Z,100599.61
2018-07-20T22:08:21.343Z,100597.44
2018-07-20T22:10:49.569Z,100599.23
2018-07-20T22:13:17.789Z,100601.66
2018-07-20T22:15:46.004Z,100604.05
2018-07-20T22:18:14.217Z,100599.39
2018-07-20T22:20:42.513Z,100600.44
2018-07-20T22:23:10.788Z,100600.44
2018-07-20T22:25:39.007Z,100591.95
2018-07-20T22:28:07.669Z,100597.56
2018-07-20T22:30:35.889Z,100596.44
2018-07-20T22:33:04.117Z,100598.83
2018-07-20T22:35:32.360Z,100594.42
2018-07-20T22:38:00.604Z,100587.67
2018-07-20T22:40:28.825Z,100592.16
2018-07-20T22:42:57.045Z,100582.63
2018-07-20T22:45:25.296Z,100586.67
2018-07-20T22:47:53.507Z,100580.14
2018-07-20T22:50:21.745Z,100581.19
2018-07-20T22:52:49.978Z,100581.70
2018-07-20T22:55:18.213Z,100584.93
2018-07-20T22:57:46.472Z,100579.23
2018-07-20T23:00:14.733Z,100579.75
2018-07-20T23:02:43.008Z,100584.84
2018-07-20T23:05:11.221Z,100580.44
2018-07-20T23:07:39.432Z,100579.13
2018-07-20T23:10:07.688Z,100572.39
2018-07-20T23:12:35.900Z,100581.59
2018-07-20T23:15:04.688Z,100583.28
2018-07-20T23:17:32.925Z,100585.84
2018-07-20T23:20:01.133Z,100587.52
2018-07-20T23:22:29.416Z,100580.81
2018-07-20T23:24:57.936Z,100577.29
2018-07-20T23:27:26.181Z,100579.92
2018-07-20T23:29:54.384Z,100583.66
2018-07-20T23:32:22.640Z,100583.88
2018-07-20T23:34:50.865Z,100584.83
2018-07-20T23:37:19.084Z,100578.20
2018-07-20T23:39:47.381Z,100573.55
2018-07-20T23:42:15.616Z,100571.58
2018-07-20T23:44:43.845Z,100574.00
2018-07-20T23:47:12.109Z,100575.05
2018-07-20T23:49:40.341Z,100574.43
2018-07-20T23:52:08.549Z,100569.56
2018-07-20T23:54:36.797Z,100565.73
2018-07-20T23:57:05.021Z,100568.42
2018-07-20T23:59:33.283Z,100568.12
